sensor_id;sensor_type;location;lat;lon;timestamp;pressure;altitude;pressure_sealevel;temperature;humidity
70206;BME280;57593;55.896;37.396;2022-09-01T00:00:22;98655.81;;;9.84;100.00
70206;BME280;57593;55.896;37.396;2022-09-01T00:00:58;98651.91;;;9.78;100.00
70206;BME280;57593;55.896;37.396;2022-09-01T00:01:29;98652.25;;;9.77;100.00
70206;BME280;57593;55.896;37.396;2022-09-01T00:01:59;98650.31;;;9.74;100.00
70206;BME280;57593;55.896;37.396;2022-09-01T00:02:30;98648.19;;;9.79;100.00
70206;BME280;57593;55.896;37.396;2022-09-01T00:03:01;98654.56;;;9.78;100.00
70206;BME280;57593;55.896;37.396;2022-09-01T00:03:32;98654.06;;;9.73;100.00
70206;BME280;57593;55.896;37.396;2022-09-01T00:04:03;98650.41;;;9.77;100.00
70206;BME280;57593;55.896;37.396;2022-09-01T00:04:37;98654.22;;;9.80;100.00
70206;BME280;57593;55.896;37.396;2022-09-01T00:05:08;98659.06;;;9.78;100.00
70206;BME280;57593;55.896;37.396;2022-09-01T00:05:39;98650.06;;;9.79;100.00
70206;BME280;57593;55.896;37.396;2022-09-01T00:06:10;98649.38;;;9.82;100.00
70206;BME280;57593;55.896;37.396;2022-09-01T00:06:41;98649.88;;;9.71;100.00
70206;BME280;57593;55.896;37.396;2022-09-01T00:07:12;98651.91;;;9.78;100.00
70206;BME280;57593;55.896;37.396;2022-09-01T00:07:43;98653.53;;;9.83;100.00
70206;BME280;57593;55.896;37.396;2022-09-01T00:08:14;98659.66;;;9.87;100.00
70206;BME280;57593;55.896;37.396;2022-09-01T00:08:45;98652.44;;;9.84;100.00
70206;BME280;57593;55.896;37.396;2022-09-01T00:09:18;98650.41;;;9.77;100.00
70206;BME280;57593;55.896;37.396;2022-09-01T00:09:49;98651.84;;;9.75;100.00
70206;BME280;57593;55.896;37.396;2022-09-01T00:10:20;98653.63;;;9.70;100.00
70206;BME280;57593;55.896;37.396;2022-09-01T00:10:51;98657.81;;;9.71;100.00
70206;BME280;57593;55.896;37.396;2022-09-01T00:11:24;98653.88;;;9.65;100.00
70206;BME280;57593;55.896;37.396;2022-09-01T00:11:55;98659.50;;;9.64;100.00
70206;BME280;57593;55.896;37.396;2022-09-01T00:12:27;98651.44;;;9.73;100.00
70206;BME280;57593;55.896;37.396;2022-09-01T00:12:58;98654.91;;;9.77;100.00
70206;BME280;57593;55.896;37.396;2022-09-01T00:13:29;98651.22;;;9.81;100.00
70206;BME280;57593;55.896;37.396;2022-09-01T00:14:04;98656.84;;;9.80;100.00
70206;BME280;57593;55.896;37.396;2022-09-01T00:14:38;98656.09;;;9.79;100.00
70206;BME280;57593;55.896;37.396;2022-09-01T00:15:11;98652.44;;;9.68;100.00
70206;BME280;57593;55.896;37.396;2022-09-01T00:15:42;98652.38;;;9.80;100.00
70206;BME280;57593;55.896;37.396;2022-09-01T00:16:15;98651.41;;;9.88;100.00
70206;BME280;57593;55.896;37.396;2022-09-01T00:16:47;98657.53;;;9.93;100.00
70206;BME280;57593;55.896;37.396;2022-09-01T00:17:17;98649.53;;;9.89;100.00
70206;BME280;57593;55.896;37.396;2022-09-01T00:17:48;98659.75;;;9.90;100.00
70206;BME280;57593;55.896;37.396;2022-09-01T00:18:19;98655.25;;;9.91;100.00
70206;BME280;57593;55.896;37.396;2022-09-01T00:18:52;98657.78;;;9.87;100.00
70206;BME280;57593;55.896;37.396;2022-09-01T00:19:23;98658.91;;;9.86;100.00
70206;BME280;57593;55.896;37.396;2022-09-01T00:19:54;98664.34;;;9.94;100.00
70206;BME280;57593;55.896;37.396;2022-09-01T00:20:24;98663.66;;;9.97;100.00
70206;BME280;57593;55.896;37.396;2022-09-01T00:20:55;98646.13;;;9.88;100.00
70206;BME280;57593;55.896;37.396;2022-09-01T00:21:31;98660.88;;;9.89;100.00
70206;BME280;57593;55.896;37.396;2022-09-01T00:22:03;98656.84;;;9.80;100.00
70206;BME280;57593;55.896;37.396;2022-09-01T00:22:34;98656.84;;;9.80;100.00
70206;BME280;57593;55.896;37.396;2022-09-01T00:23:04;98654.91;;;9.77;100.00
70206;BME280;57593;55.896;37.396;2022-09-01T00:23:35;98656.44;;;9.78;100.00
70206;BME280;57593;55.896;37.396;2022-09-01T00:24:07;98663.94;;;9.76;100.00
70206;BME280;57593;55.896;37.396;2022-09-01T00:24:38;98656.59;;;9.69;100.00
70206;BME280;57593;55.896;37.396;2022-09-01T00:25:09;98658.91;;;9.70;100.00
70206;BME280;57593;55.896;37.396;2022-09-01T00:25:39;98656.19;;;9.67;100.00
70206;BME280;57593;55.896;37.396;2022-09-01T00:26:10;98663.50;;;9.74;100.00
70206;BME280;57593;55.896;37.396;2022-09-01T00:26:41;98651.50;;;9.76;100.00
70206;BME280;57593;55.896;37.396;2022-09-01T00:27:12;98662.66;;;9.69;100.00
70206;BME280;57593;55.896;37.396;2022-09-01T00:27:43;98666.72;;;9.67;100.00
70206;BME280;57593;55.896;37.396;2022-09-01T00:28:14;98661.28;;;9.60;100.00
70206;BME280;57593;55.896;37.396;2022-09-01T00:28:44;98662.06;;;9.60;100.00
70206;BME280;57593;55.896;37.396;2022-09-01T00:29:15;98666.53;;;9.60;100.00
70206;BME280;57593;55.896;37.396;2022-09-01T00:29:46;98665.13;;;9.62;100.00
70206;BME280;57593;55.896;37.396;2022-09-01T00:30:17;98657.72;;;9.68;100.00
70206;BME280;57593;55.896;37.396;2022-09-01T00:30:48;98663.69;;;9.65;100.00
70206;BME280;57593;55.896;37.396;2022-09-01T00:31:19;98660.09;;;9.57;100.00
70206;BME280;57593;55.896;37.396;2022-09-01T00:31:50;98658.75;;;9.63;100.00
70206;BME280;57593;55.896;37.396;2022-09-01T00:32:21;98662.81;;;9.61;100.00
70206;BME280;57593;55.896;37.396;2022-09-01T00:32:52;98655.78;;;9.65;100.00
70206;BME280;57593;55.896;37.396;2022-09-01T00:33:22;98655.59;;;9.58;100.00
70206;BME280;57593;55.896;37.396;2022-09-01T00:33:54;98655.25;;;9.59;100.00
70206;BME280;57593;55.896;37.396;2022-09-01T00:34:24;98647.41;;;9.63;100.00
70206;BME280;57593;55.896;37.396;2022-09-01T00:34:55;98660.25;;;9.64;100.00
70206;BME280;57593;55.896;37.396;2022-09-01T00:35:26;98655.25;;;9.59;100.00
70206;BME280;57593;55.896;37.396;2022-09-01T00:35:57;98662.41;;;9.59;100.00
70206;BME280;57593;55.896;37.396;2022-09-01T00:36:28;98664.59;;;9.57;100.00
70206;BME280;57593;55.896;37.396;2022-09-01T00:36:58;98658.56;;;9.40;100.00
70206;BME280;57593;55.896;37.396;2022-09-01T00:37:29;98661.28;;;9.44;100.00
70206;BME280;57593;55.896;37.396;2022-09-01T00:38:00;98661.38;;;9.47;100.00
70206;BME280;57593;55.896;37.396;2022-09-01T00:38:32;98667.41;;;9.48;100.00
70206;BME280;57593;55.896;37.396;2022-09-01T00:39:04;98655.31;;;9.47;100.00
70206;BME280;57593;55.896;37.396;2022-09-01T00:39:35;98670.88;;;9.52;100.00
70206;BME280;57593;55.896;37.396;2022-09-01T00:40:06;98667.31;;;9.44;100.00
70206;BME280;57593;55.896;37.396;2022-09-01T00:40:38;98658.75;;;9.47;100.00
70206;BME280;57593;55.896;37.396;2022-09-01T00:41:10;98668.50;;;9.47;100.00
70206;BME280;57593;55.896;37.396;2022-09-01T00:41:41;98658.03;;;9.50;100.00
70206;BME280;57593;55.896;37.396;2022-09-01T00:42:13;98656.34;;;9.42;100.00
70206;BME280;57593;55.896;37.396;2022-09-01T00:42:44;98655.25;;;9.43;100.00
70206;BME280;57593;55.896;37.396;2022-09-01T00:44:09;98663.56;;;9.45;100.00
70206;BME280;57593;55.896;37.396;2022-09-01T00:44:41;98662.63;;;9.53;100.00
70206;BME280;57593;55.896;37.396;2022-09-01T00:45:12;98661.81;;;9.49;100.00
70206;BME280;57593;55.896;37.396;2022-09-01T00:45:42;98667.00;;;9.46;100.00
70206;BME280;57593;55.896;37.396;2022-09-01T00:46:50;98665.03;;;9.43;100.00
70206;BME280;57593;55.896;37.396;2022-09-01T00:47:22;98670.78;;;9.32;100.00
70206;BME280;57593;55.896;37.396;2022-09-01T00:47:53;98669.50;;;9.26;100.00
70206;BME280;57593;55.896;37.396;2022-09-01T00:48:23;98667.28;;;9.28;100.00
70206;BME280;57593;55.896;37.396;2022-09-01T00:49:00;98663.56;;;9.29;100.00
70206;BME280;57593;55.896;37.396;2022-09-01T00:49:38;98665.44;;;9.29;100.00
70206;BME280;57593;55.896;37.396;2022-09-01T00:50:11;98661.88;;;9.37;100.00
70206;BME280;57593;55.896;37.396;2022-09-01T00:50:42;98670.97;;;9.40;100.00
70206;BME280;57593;55.896;37.396;2022-09-01T00:51:13;98666.53;;;9.44;100.00
70206;BME280;57593;55.896;37.396;2022-09-01T00:51:54;98670.78;;;9.32;100.00
70206;BME280;57593;55.896;37.396;2022-09-01T00:52:30;98671.81;;;9.44;100.00
70206;BME280;57593;55.896;37.396;2022-09-01T00:53:03;98671.47;;;9.45;100.00
70206;BME280;57593;55.896;37.396;2022-09-01T00:53:37;98685.44;;;9.46;100.00
70206;BME280;57593;55.896;37.396;2022-09-01T00:54:13;98673.94;;;9.38;100.00
70206;BME280;57593;55.896;37.396;2022-09-01T00:54:50;98671.53;;;9.33;100.00
70206;BME280;57593;55.896;37.396;2022-09-01T00:55:28;98666.38;;;9.37;100.00
70206;BME280;57593;55.896;37.396;2022-09-01T00:56:01;98673.28;;;9.41;100.00
70206;BME280;57593;55.896;37.396;2022-09-01T00:56:33;98666.72;;;9.35;100.00
70206;BME280;57593;55.896;37.396;2022-09-01T00:57:05;98666.72;;;9.35;100.00
70206;BME280;57593;55.896;37.396;2022-09-01T00:57:38;98679.22;;;9.38;100.00
70206;BME280;57593;55.896;37.396;2022-09-01T00:58:09;98669.34;;;9.35;100.00
70206;BME280;57593;55.896;37.396;2022-09-01T00:58:40;98662.13;;;9.32;100.00
70206;BME280;57593;55.896;37.396;2022-09-01T00:59:12;98662.00;;;9.28;100.00
70206;BME280;57593;55.896;37.396;2022-09-01T00:59:50;98667.63;;;9.27;100.00
70206;BME280;57593;55.896;37.396;2022-09-01T01:00:26;98668.75;;;9.26;100.00
70206;BME280;57593;55.896;37.396;2022-09-01T01:00:57;98672.66;;;9.32;100.00
70206;BME280;57593;55.896;37.396;2022-09-01T01:01:28;98671.88;;;9.31;100.00
70206;BME280;57593;55.896;37.396;2022-09-01T01:01:59;98671.38;;;9.26;100.00
70206;BME280;57593;55.896;37.396;2022-09-01T01:02:30;98667.72;;;9.30;100.00
70206;BME280;57593;55.896;37.396;2022-09-01T01:03:00;98672.56;;;9.28;100.00
70206;BME280;57593;55.896;37.396;2022-09-01T01:03:31;98669.91;;;9.28;100.00
70206;BME280;57593;55.896;37.396;2022-09-01T01:04:05;98673.00;;;9.30;100.00
70206;BME280;57593;55.896;37.396;2022-09-01T01:04:36;98662.47;;;9.30;100.00
70206;BME280;57593;55.896;37.396;2022-09-01T01:05:08;98671.66;;;9.37;100.00
70206;BME280;57593;55.896;37.396;2022-09-01T01:05:42;98668.00;;;9.41;100.00
70206;BME280;57593;55.896;37.396;2022-09-01T01:06:18;98665.59;;;9.36;100.00
70206;BME280;57593;55.896;37.396;2022-09-01T01:06:55;98670.97;;;9.40;100.00
70206;BME280;57593;55.896;37.396;2022-09-01T01:07:30;98664.84;;;9.35;100.00
70206;BME280;57593;55.896;37.396;2022-09-01T01:08:08;98667.13;;;9.37;100.00
70206;BME280;57593;55.896;37.396;2022-09-01T01:08:44;98669.25;;;9.31;100.00
70206;BME280;57593;55.896;37.396;2022-09-01T01:09:33;98673.41;;;9.16;100.00
70206;BME280;57593;55.896;37.396;2022-09-01T01:10:06;98664.38;;;9.17;100.00
70206;BME280;57593;55.896;37.396;2022-09-01T01:10:40;98672.06;;;9.23;100.00
70206;BME280;57593;55.896;37.396;2022-09-01T01:11:13;98672.72;;;9.20;100.00
70206;BME280;57593;55.896;37.396;2022-09-01T01:11:47;98677.22;;;9.19;100.00
70206;BME280;57593;55.896;37.396;2022-09-01T01:12:18;98671.28;;;9.22;100.00
70206;BME280;57593;55.896;37.396;2022-09-01T01:12:49;98668.56;;;9.18;100.00
70206;BME280;57593;55.896;37.396;2022-09-01T01:13:21;98664.63;;;9.12;100.00
70206;BME280;57593;55.896;37.396;2022-09-01T01:14:05;98674.63;;;9.07;100.00
70206;BME280;57593;55.896;37.396;2022-09-01T01:14:43;98663.53;;;9.13;100.00
70206;BME280;57593;55.896;37.396;2022-09-01T01:15:15;98679.22;;;9.10;100.00
70206;BME280;57593;55.896;37.396;2022-09-01T01:15:46;98670.03;;;9.04;100.00
70206;BME280;57593;55.896;37.396;2022-09-01T01:16:17;98651.59;;;9.04;100.00
70206;BME280;57593;55.896;37.396;2022-09-01T01:16:48;98661.03;;;9.05;100.00
70206;BME280;57593;55.896;37.396;2022-09-01T01:17:22;98658.81;;;9.07;100.00
70206;BME280;57593;55.896;37.396;2022-09-01T01:17:54;98664.97;;;9.11;100.00
70206;BME280;57593;55.896;37.396;2022-09-01T01:18:25;98668.56;;;9.18;100.00
70206;BME280;57593;55.896;37.396;2022-09-01T01:18:56;98660.03;;;9.09;100.00
70206;BME280;57593;55.896;37.396;2022-09-01T01:20:26;98673.19;;;9.09;100.00
70206;BME280;57593;55.896;37.396;2022-09-01T01:21:33;98666.09;;;8.97;100.00
70206;BME280;57593;55.896;37.396;2022-09-01T01:22:44;98669.53;;;8.98;100.00
70206;BME280;57593;55.896;37.396;2022-09-01T01:23:38;98665.00;;;8.98;100.00
70206;BME280;57593;55.896;37.396;2022-09-01T01:24:55;98661.97;;;8.96;100.00
70206;BME280;57593;55.896;37.396;2022-09-01T01:26:12;98660.75;;;8.94;100.00
70206;BME280;57593;55.896;37.396;2022-09-01T01:26:19;98658.91;;;8.94;100.00
70206;BME280;57593;55.896;37.396;2022-09-01T01:26:51;98651.66;;;8.91;100.00
70206;BME280;57593;55.896;37.396;2022-09-01T01:27:23;98666.94;;;8.86;100.00
70206;BME280;57593;55.896;37.396;2022-09-01T01:28:06;98659.16;;;8.77;100.00
70206;BME280;57593;55.896;37.396;2022-09-01T01:28:41;98649.25;;;8.86;100.00
70206;BME280;57593;55.896;37.396;2022-09-01T01:29:13;98662.00;;;8.84;100.00
70206;BME280;57593;55.896;37.396;2022-09-01T01:29:45;98658.53;;;8.96;100.00
70206;BME280;57593;55.896;37.396;2022-09-01T01:30:18;98661.75;;;8.89;100.00
70206;BME280;57593;55.896;37.396;2022-09-01T01:31:02;98653.63;;;8.94;100.00
70206;BME280;57593;55.896;37.396;2022-09-01T01:31:35;98658.91;;;8.94;100.00
70206;BME280;57593;55.896;37.396;2022-09-01T01:32:06;98657.44;;;8.97;100.00
70206;BME280;57593;55.896;37.396;2022-09-01T01:32:43;98648.16;;;8.87;100.00
70206;BME280;57593;55.896;37.396;2022-09-01T01:33:15;98666.56;;;8.71;100.00
70206;BME280;57593;55.896;37.396;2022-09-01T01:33:49;98658.16;;;8.81;100.00
70206;BME280;57593;55.896;37.396;2022-09-01T01:34:21;98659.13;;;8.89;100.00
70206;BME280;57593;55.896;37.396;2022-09-01T01:34:54;98663.00;;;8.79;100.00
70206;BME280;57593;55.896;37.396;2022-09-01T01:35:25;98654.78;;;8.81;100.00
70206;BME280;57593;55.896;37.396;2022-09-01T01:35:57;98653.34;;;8.84;100.00
70206;BME280;57593;55.896;37.396;2022-09-01T01:36:33;98657.59;;;8.88;100.00
70206;BME280;57593;55.896;37.396;2022-09-01T01:37:07;98656.59;;;8.93;100.00
70206;BME280;57593;55.896;37.396;2022-09-01T01:37:42;98660.09;;;8.97;100.00
70206;BME280;57593;55.896;37.396;2022-09-01T01:38:20;98652.09;;;8.93;100.00
70206;BME280;57593;55.896;37.396;2022-09-01T01:38:53;98657.34;;;8.93;100.00
70206;BME280;57593;55.896;37.396;2022-09-01T01:39:25;98655.72;;;8.89;100.00
70206;BME280;57593;55.896;37.396;2022-09-01T01:39:56;98656.94;;;8.91;100.00
70206;BME280;57593;55.896;37.396;2022-09-01T01:40:28;98663.72;;;8.92;100.00
70206;BME280;57593;55.896;37.396;2022-09-01T01:41:00;98650.38;;;8.85;100.00
70206;BME280;57593;55.896;37.396;2022-09-01T01:41:32;98651.56;;;8.88;100.00
70206;BME280;57593;55.896;37.396;2022-09-01T01:42:03;98652.22;;;8.85;100.00
70206;BME280;57593;55.896;37.396;2022-09-01T01:42:38;98649.31;;;8.74;100.00
70206;BME280;57593;55.896;37.396;2022-09-01T01:43:10;98643.63;;;8.72;100.00
70206;BME280;57593;55.896;37.396;2022-09-01T01:43:49;98647.44;;;8.74;100.00
70206;BME280;57593;55.896;37.396;2022-09-01T01:44:23;98646.88;;;8.81;100.00
70206;BME280;57593;55.896;37.396;2022-09-01T01:44:58;98648.97;;;8.75;100.00
70206;BME280;57593;55.896;37.396;2022-09-01T01:45:34;98648.53;;;8.73;100.00
70206;BME280;57593;55.896;37.396;2022-09-01T01:46:06;98657.53;;;8.72;100.00
70206;BME280;57593;55.896;37.396;2022-09-01T01:46:47;98656.34;;;8.70;100.00
70206;BME280;57593;55.896;37.396;2022-09-01T01:47:20;98651.84;;;8.70;100.00
70206;BME280;57593;55.896;37.396;2022-09-01T01:47:52;98653.47;;;8.75;100.00
70206;BME280;57593;55.896;37.396;2022-09-01T01:48:25;98660.94;;;8.73;100.00
70206;BME280;57593;55.896;37.396;2022-09-01T01:48:57;98654.56;;;8.74;100.00
70206;BME280;57593;55.896;37.396;2022-09-01T01:49:34;98663.59;;;8.73;100.00
70206;BME280;57593;55.896;37.396;2022-09-01T01:50:06;98654.81;;;8.69;100.00
70206;BME280;57593;55.896;37.396;2022-09-01T01:50:40;98665.44;;;8.72;100.00
70206;BME280;57593;55.896;37.396;2022-09-01T01:51:12;98658.28;;;8.85;100.00
70206;BME280;57593;55.896;37.396;2022-09-01T01:51:44;98658.06;;;8.78;100.00
70206;BME280;57593;55.896;37.396;2022-09-01T01:52:17;98656.19;;;8.78;100.00
70206;BME280;57593;55.896;37.396;2022-09-01T01:52:51;98662.81;;;8.72;100.00
70206;BME280;57593;55.896;37.396;2022-09-01T01:53:22;98656.78;;;8.72;100.00
70206;BME280;57593;55.896;37.396;2022-09-01T01:53:54;98654.91;;;8.72;100.00
70206;BME280;57593;55.896;37.396;2022-09-01T01:54:26;98654.47;;;8.70;100.00
70206;BME280;57593;55.896;37.396;2022-09-01T01:54:58;98656.44;;;8.73;100.00
70206;BME280;57593;55.896;37.396;2022-09-01T01:55:30;98659.19;;;8.64;100.00
70206;BME280;57593;55.896;37.396;2022-09-01T01:56:03;98658.44;;;8.64;100.00
70206;BME280;57593;55.896;37.396;2022-09-01T01:56:40;98659.34;;;8.56;100.00
70206;BME280;57593;55.896;37.396;2022-09-01T01:57:12;98653.09;;;8.60;100.00
70206;BME280;57593;55.896;37.396;2022-09-01T01:57:47;98655.72;;;8.60;100.00
70206;BME280;57593;55.896;37.396;2022-09-01T01:58:21;98652.88;;;8.53;100.00
70206;BME280;57593;55.896;37.396;2022-09-01T01:58:55;98655.94;;;8.55;100.00
70206;BME280;57593;55.896;37.396;2022-09-01T01:59:27;98661.19;;;8.55;100.00
70206;BME280;57593;55.896;37.396;2022-09-01T01:59:59;98653.84;;;8.61;100.00
70206;BME280;57593;55.896;37.396;2022-09-01T02:00:31;98656.22;;;8.66;100.00
70206;BME280;57593;55.896;37.396;2022-09-01T02:01:05;98653.28;;;8.68;100.00
70206;BME280;57593;55.896;37.396;2022-09-01T02:01:37;98658.44;;;8.64;100.00
70206;BME280;57593;55.896;37.396;2022-09-01T02:02:09;98655.38;;;8.62;100.00
70206;BME280;57593;55.896;37.396;2022-09-01T02:02:42;98652.41;;;8.63;100.00
70206;BME280;57593;55.896;37.396;2022-09-01T02:03:15;98651.63;;;8.63;100.00
70206;BME280;57593;55.896;37.396;2022-09-01T02:03:50;98652.22;;;8.56;100.00
70206;BME280;57593;55.896;37.396;2022-09-01T02:04:23;98658.34;;;8.60;100.00
70206;BME280;57593;55.896;37.396;2022-09-01T02:04:57;98650.66;;;8.55;100.00
70206;BME280;57593;55.896;37.396;2022-09-01T02:05:31;98644.06;;;8.61;100.00
70206;BME280;57593;55.896;37.396;2022-09-01T02:06:04;98653.28;;;8.68;100.00
70206;BME280;57593;55.896;37.396;2022-09-01T02:06:37;98656.22;;;8.66;100.00
70206;BME280;57593;55.896;37.396;2022-09-01T02:07:15;98660.44;;;8.55;100.00
70206;BME280;57593;55.896;37.396;2022-09-01T02:07:48;98645.31;;;8.52;100.00
70206;BME280;57593;55.896;37.396;2022-09-01T02:08:21;98648.50;;;8.57;100.00
70206;BME280;57593;55.896;37.396;2022-09-01T02:08:56;98650.78;;;8.59;100.00
70206;BME280;57593;55.896;37.396;2022-09-01T02:09:27;98649.91;;;8.55;100.00
70206;BME280;57593;55.896;37.396;2022-09-01T02:09:58;98654.84;;;8.56;100.00
70206;BME280;57593;55.896;37.396;2022-09-01T02:10:32;98655.94;;;8.55;100.00
70206;BME280;57593;55.896;37.396;2022-09-01T02:11:05;98661.66;;;8.57;100.00
70206;BME280;57593;55.896;37.396;2022-09-01T02:11:35;98659.00;;;8.57;100.00
70206;BME280;57593;55.896;37.396;2022-09-01T02:12:08;98660.09;;;8.56;100.00
70206;BME280;57593;55.896;37.396;2022-09-01T02:12:39;98657.56;;;8.60;100.00
70206;BME280;57593;55.896;37.396;2022-09-01T02:13:14;98657.13;;;8.58;100.00
70206;BME280;57593;55.896;37.396;2022-09-01T02:13:48;98655.28;;;8.46;100.00
70206;BME280;57593;55.896;37.396;2022-09-01T02:14:19;98657.16;;;8.45;100.00
70206;BME280;57593;55.896;37.396;2022-09-01T02:14:51;98660.09;;;8.56;100.00
70206;BME280;57593;55.896;37.396;2022-09-01T02:15:24;98650.78;;;8.59;100.00
70206;BME280;57593;55.896;37.396;2022-09-01T02:15:59;98654.63;;;8.49;100.00
70206;BME280;57593;55.896;37.396;2022-09-01T02:16:30;98652.88;;;8.53;100.00
70206;BME280;57593;55.896;37.396;2022-09-01T02:17:06;98657.81;;;8.55;100.00
70206;BME280;57593;55.896;37.396;2022-09-01T02:17:38;98656.38;;;8.57;100.00
70206;BME280;57593;55.896;37.396;2022-09-01T02:18:14;98659.09;;;8.61;100.00
70206;BME280;57593;55.896;37.396;2022-09-01T02:18:48;98664.28;;;8.57;100.00
70206;BME280;57593;55.896;37.396;2022-09-01T02:19:19;98659.44;;;8.59;100.00
70206;BME280;57593;55.896;37.396;2022-09-01T02:19:50;98657.13;;;8.58;100.00
70206;BME280;57593;55.896;37.396;2022-09-01T02:20:26;98659.09;;;8.61;100.00
70206;BME280;57593;55.896;37.396;2022-09-01T02:21:05;98662.75;;;8.56;100.00
70206;BME280;57593;55.896;37.396;2022-09-01T02:21:40;98662.41;;;8.58;100.00
70206;BME280;57593;55.896;37.396;2022-09-01T02:22:14;98661.06;;;8.64;100.00
70206;BME280;57593;55.896;37.396;2022-09-01T02:22:44;98660.16;;;8.72;100.00
70206;BME280;57593;55.896;37.396;2022-09-01T02:23:16;98660.84;;;8.69;100.00
70206;BME280;57593;55.896;37.396;2022-09-01T02:23:58;98666.25;;;8.60;100.00
70206;BME280;57593;55.896;37.396;2022-09-01T02:24:30;98667.91;;;8.53;100.00
70206;BME280;57593;55.896;37.396;2022-09-01T02:25:01;98657.13;;;8.58;100.00
70206;BME280;57593;55.896;37.396;2022-09-01T02:25:34;98657.56;;;8.60;100.00
70206;BME280;57593;55.896;37.396;2022-09-01T02:26:07;98655.94;;;8.55;100.00
70206;BME280;57593;55.896;37.396;2022-09-01T02:26:43;98657.06;;;8.54;100.00
70206;BME280;57593;55.896;37.396;2022-09-01T02:27:17;98655.94;;;8.55;100.00
70206;BME280;57593;55.896;37.396;2022-09-01T02:27:55;98655.59;;;8.57;100.00
70206;BME280;57593;55.896;37.396;2022-09-01T02:28:25;98662.31;;;8.54;100.00
70206;BME280;57593;55.896;37.396;2022-09-01T02:29:00;98661.19;;;8.55;100.00
70206;BME280;57593;55.896;37.396;2022-09-01T02:29:34;98665.78;;;8.58;100.00
70206;BME280;57593;55.896;37.396;2022-09-01T02:30:07;98661.31;;;8.59;100.00
70206;BME280;57593;55.896;37.396;2022-09-01T02:30:45;98653.75;;;8.57;100.00
70206;BME280;57593;55.896;37.396;2022-09-01T02:31:17;98664.94;;;8.54;100.00
70206;BME280;57593;55.896;37.396;2022-09-01T02:31:52;98658.69;;;8.59;100.00
70206;BME280;57593;55.896;37.396;2022-09-01T02:32:23;98662.41;;;8.58;100.00
70206;BME280;57593;55.896;37.396;2022-09-01T02:32:54;98668.25;;;8.51;100.00
70206;BME280;57593;55.896;37.396;2022-09-01T02:33:25;98657.25;;;8.49;100.00
70206;BME280;57593;55.896;37.396;2022-09-01T02:33:57;98655.75;;;8.48;100.00
70206;BME280;57593;55.896;37.396;2022-09-01T02:34:28;98654.28;;;8.51;100.00
70206;BME280;57593;55.896;37.396;2022-09-01T02:35:02;98661.88;;;8.52;100.00
70206;BME280;57593;55.896;37.396;2022-09-01T02:35:37;98661.66;;;8.57;100.00
70206;BME280;57593;55.896;37.396;2022-09-01T02:36:11;98660.78;;;8.53;100.00
70206;BME280;57593;55.896;37.396;2022-09-01T02:36:46;98661.19;;;8.55;100.00
70206;BME280;57593;55.896;37.396;2022-09-01T02:37:20;98663.94;;;8.59;100.00
70206;BME280;57593;55.896;37.396;2022-09-01T02:37:55;98663.81;;;8.55;100.00
70206;BME280;57593;55.896;37.396;2022-09-01T02:38:30;98660.00;;;8.53;100.00
70206;BME280;57593;55.896;37.396;2022-09-01T02:39:03;98666.91;;;8.57;100.00
70206;BME280;57593;55.896;37.396;2022-09-01T02:39:35;98660.97;;;8.60;100.00
70206;BME280;57593;55.896;37.396;2022-09-01T02:40:07;98652.22;;;8.56;100.00
70206;BME280;57593;55.896;37.396;2022-09-01T02:40:40;98659.44;;;8.59;100.00
70206;BME280;57593;55.896;37.396;2022-09-01T02:41:14;98664.91;;;8.67;100.00
70206;BME280;57593;55.896;37.396;2022-09-01T02:41:51;98662.81;;;8.72;100.00
70206;BME280;57593;55.896;37.396;2022-09-01T02:42:27;98666.97;;;8.73;100.00
70206;BME280;57593;55.896;37.396;2022-09-01T02:43:00;98673.00;;;8.74;100.00
70206;BME280;57593;55.896;37.396;2022-09-01T02:43:30;98662.03;;;8.72;100.00
70206;BME280;57593;55.896;37.396;2022-09-01T02:44:03;98672.31;;;8.77;100.00
70206;BME280;57593;55.896;37.396;2022-09-01T02:44:41;98663.34;;;8.78;100.00
70206;BME280;57593;55.896;37.396;2022-09-01T02:45:13;98672.00;;;8.78;100.00
70206;BME280;57593;55.896;37.396;2022-09-01T02:45:47;98672.13;;;8.82;100.00
70206;BME280;57593;55.896;37.396;2022-09-01T02:46:23;98666.59;;;8.87;100.00
70206;BME280;57593;55.896;37.396;2022-09-01T02:46:54;98665.63;;;8.79;100.00
70206;BME280;57593;55.896;37.396;2022-09-01T02:47:27;98668.41;;;8.99;100.00
70206;BME280;57593;55.896;37.396;2022-09-01T02:47:58;98668.06;;;9.00;100.00
70206;BME280;57593;55.896;37.396;2022-09-01T02:48:36;98674.97;;;9.05;100.00
70206;BME280;57593;55.896;37.396;2022-09-01T02:49:14;98673.97;;;9.10;100.00
70206;BME280;57593;55.896;37.396;2022-09-01T02:49:46;98675.91;;;9.13;100.00
70206;BME280;57593;55.896;37.396;2022-09-01T02:50:17;98668.59;;;9.06;100.00
70206;BME280;57593;55.896;37.396;2022-09-01T02:50:49;98668.53;;;9.03;100.00
70206;BME280;57593;55.896;37.396;2022-09-01T02:51:22;98666.06;;;9.10;100.00
70206;BME280;57593;55.896;37.396;2022-09-01T02:51:57;98678.56;;;9.13;100.00
70206;BME280;57593;55.896;37.396;2022-09-01T02:52:31;98673.16;;;9.22;100.00
70206;BME280;57593;55.896;37.396;2022-09-01T02:53:08;98671.38;;;9.26;100.00
70206;BME280;57593;55.896;37.396;2022-09-01T02:53:45;98674.69;;;9.23;100.00
70206;BME280;57593;55.896;37.396;2022-09-01T02:54:21;98671.78;;;9.28;100.00
70206;BME280;57593;55.896;37.396;2022-09-01T02:54:55;98668.22;;;9.20;100.00
70206;BME280;57593;55.896;37.396;2022-09-01T02:55:25;98669.09;;;9.24;100.00
70206;BME280;57593;55.896;37.396;2022-09-01T02:55:56;98673.34;;;9.29;100.00
70206;BME280;57593;55.896;37.396;2022-09-01T02:56:29;98666.53;;;9.44;100.00
70206;BME280;57593;55.896;37.396;2022-09-01T02:57:00;98669.63;;;9.46;100.00
70206;BME280;57593;55.896;37.396;2022-09-01T02:57:31;98666.22;;;9.45;100.00